sensor_id;sensor_type;location;lat;lon;timestamp;P1;durP1;ratioP1;P2;durP2;ratioP2
9304;SDS011;4690;52.422;13.486;2023-05-16T00:05:40;9.38;;;6.72;;
9304;SDS011;4690;52.422;13.486;2023-05-16T00:08:06;7.90;;;7.07;;
9304;SDS011;4690;52.422;13.486;2023-05-16T00:10:32;7.47;;;6.87;;
9304;SDS011;4690;52.422;13.486;2023-05-16T00:12:58;10.70;;;7.07;;
9304;SDS011;4690;52.422;13.486;2023-05-16T00:15:25;7.20;;;6.60;;
9304;SDS011;4690;52.422;13.486;2023-05-16T00:17:53;7.65;;;6.95;;
9304;SDS011;4690;52.422;13.486;2023-05-16T00:20:27;7.67;;;6.97;;
9304;SDS011;4690;52.422;13.486;2023-05-16T00:22:53;8.25;;;6.78;;
9304;SDS011;4690;52.422;13.486;2023-05-16T00:25:19;8.02;;;7.22;;
9304;SDS011;4690;52.422;13.486;2023-05-16T00:27:45;7.70;;;7.00;;
9304;SDS011;4690;52.422;13.486;2023-05-16T00:30:11;7.70;;;6.97;;
9304;SDS011;4690;52.422;13.486;2023-05-16T00:32:37;9.57;;;7.85;;
9304;SDS011;4690;52.422;13.486;2023-05-16T00:35:03;8.03;;;7.30;;
9304;SDS011;4690;52.422;13.486;2023-05-16T00:37:31;8.00;;;7.30;;
9304;SDS011;4690;52.422;13.486;2023-05-16T00:39:56;8.30;;;7.43;;
9304;SDS011;4690;52.422;13.486;2023-05-16T00:42:22;8.33;;;7.30;;
9304;SDS011;4690;52.422;13.486;2023-05-16T00:44:48;8.20;;;7.45;;
9304;SDS011;4690;52.422;13.486;2023-05-16T00:47:13;8.77;;;7.87;;
9304;SDS011;4690;52.422;13.486;2023-05-16T00:49:39;9.90;;;7.97;;
9304;SDS011;4690;52.422;13.486;2023-05-16T00:52:06;9.17;;;8.33;;
9304;SDS011;4690;52.422;13.486;2023-05-16T00:54:31;9.60;;;8.73;;
9304;SDS011;4690;52.422;13.486;2023-05-16T00:56:58;9.02;;;8.20;;
9304;SDS011;4690;52.422;13.486;2023-05-16T00:59:24;9.93;;;9.03;;
9304;SDS011;4690;52.422;13.486;2023-05-16T01:01:51;10.40;;;9.30;;
9304;SDS011;4690;52.422;13.486;2023-05-16T01:04:17;9.77;;;8.77;;
9304;SDS011;4690;52.422;13.486;2023-05-16T01:06:44;9.07;;;8.27;;
9304;SDS011;4690;52.422;13.486;2023-05-16T01:09:10;10.83;;;9.73;;
9304;SDS011;4690;52.422;13.486;2023-05-16T01:17:22;11.43;;;10.33;;
9304;SDS011;4690;52.422;13.486;2023-05-16T01:28:32;15.43;;;12.73;;
9304;SDS011;4690;52.422;13.486;2023-05-16T01:30:59;14.47;;;13.00;;
9304;SDS011;4690;52.422;13.486;2023-05-16T01:33:25;14.20;;;12.70;;
9304;SDS011;4690;52.422;13.486;2023-05-16T01:44:43;15.40;;;13.87;;
9304;SDS011;4690;52.422;13.486;2023-05-16T01:47:30;18.23;;;13.73;;
9304;SDS011;4690;52.422;13.486;2023-05-16T01:50:07;15.17;;;13.67;;
9304;SDS011;4690;52.422;13.486;2023-05-16T01:55:46;15.03;;;13.63;;
9304;SDS011;4690;52.422;13.486;2023-05-16T01:58:18;16.57;;;14.27;;
9304;SDS011;4690;52.422;13.486;2023-05-16T02:00:47;14.80;;;13.47;;
9304;SDS011;4690;52.422;13.486;2023-05-16T02:03:13;15.37;;;13.97;;
9304;SDS011;4690;52.422;13.486;2023-05-16T02:05:39;15.67;;;14.00;;
9304;SDS011;4690;52.422;13.486;2023-05-16T02:08:05;15.83;;;13.80;;
9304;SDS011;4690;52.422;13.486;2023-05-16T02:10:32;15.63;;;13.93;;
9304;SDS011;4690;52.422;13.486;2023-05-16T02:12:58;17.43;;;13.70;;
9304;SDS011;4690;52.422;13.486;2023-05-16T02:15:23;14.70;;;13.40;;
9304;SDS011;4690;52.422;13.486;2023-05-16T02:17:49;15.10;;;13.60;;
9304;SDS011;4690;52.422;13.486;2023-05-16T02:20:15;13.97;;;12.60;;
9304;SDS011;4690;52.422;13.486;2023-05-16T02:22:41;13.70;;;12.30;;
9304;SDS011;4690;52.422;13.486;2023-05-16T02:25:08;16.50;;;12.83;;
9304;SDS011;4690;52.422;13.486;2023-05-16T02:27:34;14.10;;;12.80;;
9304;SDS011;4690;52.422;13.486;2023-05-16T02:30:00;14.87;;;13.00;;
9304;SDS011;4690;52.422;13.486;2023-05-16T02:32:26;13.93;;;12.50;;
9304;SDS011;4690;52.422;13.486;2023-05-16T02:34:52;14.70;;;12.30;;
9304;SDS011;4690;52.422;13.486;2023-05-16T02:37:18;14.30;;;12.70;;
9304;SDS011;4690;52.422;13.486;2023-05-16T02:39:43;13.23;;;12.03;;
9304;SDS011;4690;52.422;13.486;2023-05-16T02:42:09;13.47;;;12.20;;
9304;SDS011;4690;52.422;13.486;2023-05-16T02:44:35;13.20;;;12.00;;
9304;SDS011;4690;52.422;13.486;2023-05-16T02:47:01;13.40;;;12.20;;
9304;SDS011;4690;52.422;13.486;2023-05-16T02:49:27;16.27;;;12.47;;
9304;SDS011;4690;52.422;13.486;2023-05-16T02:51:52;14.07;;;12.57;;
9304;SDS011;4690;52.422;13.486;2023-05-16T02:54:18;14.50;;;12.40;;
9304;SDS011;4690;52.422;13.486;2023-05-16T02:56:45;13.37;;;12.10;;
9304;SDS011;4690;52.422;13.486;2023-05-16T02:59:10;13.07;;;11.80;;
9304;SDS011;4690;52.422;13.486;2023-05-16T03:01:37;13.60;;;12.30;;
9304;SDS011;4690;52.422;13.486;2023-05-16T03:04:03;14.00;;;12.50;;
9304;SDS011;4690;52.422;13.486;2023-05-16T03:06:28;14.07;;;12.53;;
9304;SDS011;4690;52.422;13.486;2023-05-16T03:08:54;12.60;;;11.30;;
9304;SDS011;4690;52.422;13.486;2023-05-16T03:11:20;13.20;;;11.90;;
9304;SDS011;4690;52.422;13.486;2023-05-16T03:13:48;14.20;;;12.33;;
9304;SDS011;4690;52.422;13.486;2023-05-16T03:16:14;13.40;;;12.13;;
9304;SDS011;4690;52.422;13.486;2023-05-16T03:18:40;14.73;;;13.23;;
9304;SDS011;4690;52.422;13.486;2023-05-16T03:21:07;14.13;;;12.70;;
9304;SDS011;4690;52.422;13.486;2023-05-16T03:23:33;14.00;;;12.50;;
9304;SDS011;4690;52.422;13.486;2023-05-16T03:25:59;17.10;;;13.97;;
9304;SDS011;4690;52.422;13.486;2023-05-16T03:28:25;14.33;;;12.97;;
9304;SDS011;4690;52.422;13.486;2023-05-16T03:30:51;15.60;;;13.87;;
9304;SDS011;4690;52.422;13.486;2023-05-16T03:33:17;14.37;;;12.80;;
9304;SDS011;4690;52.422;13.486;2023-05-16T03:35:43;15.50;;;14.00;;
9304;SDS011;4690;52.422;13.486;2023-05-16T03:38:10;17.00;;;14.23;;
9304;SDS011;4690;52.422;13.486;2023-05-16T03:40:36;16.53;;;13.73;;
9304;SDS011;4690;52.422;13.486;2023-05-16T03:43:02;15.90;;;13.93;;
9304;SDS011;4690;52.422;13.486;2023-05-16T03:45:28;17.60;;;14.27;;
9304;SDS011;4690;52.422;13.486;2023-05-16T03:47:55;16.07;;;14.47;;
9304;SDS011;4690;52.422;13.486;2023-05-16T03:50:21;16.10;;;14.40;;
9304;SDS011;4690;52.422;13.486;2023-05-16T03:52:47;16.33;;;14.73;;
9304;SDS011;4690;52.422;13.486;2023-05-16T03:55:13;15.57;;;13.97;;
9304;SDS011;4690;52.422;13.486;2023-05-16T03:57:39;14.87;;;13.40;;
9304;SDS011;4690;52.422;13.486;2023-05-16T04:00:06;15.87;;;13.43;;
9304;SDS011;4690;52.422;13.486;2023-05-16T04:02:35;20.37;;;15.60;;
9304;SDS011;4690;52.422;13.486;2023-05-16T04:05:01;17.07;;;15.33;;
9304;SDS011;4690;52.422;13.486;2023-05-16T04:07:27;16.80;;;14.60;;
9304;SDS011;4690;52.422;13.486;2023-05-16T04:09:53;16.00;;;14.10;;
9304;SDS011;4690;52.422;13.486;2023-05-16T04:12:20;18.07;;;14.90;;
9304;SDS011;4690;52.422;13.486;2023-05-16T04:14:47;17.27;;;15.07;;
9304;SDS011;4690;52.422;13.486;2023-05-16T04:17:12;15.73;;;14.23;;
9304;SDS011;4690;52.422;13.486;2023-05-16T04:19:38;17.10;;;15.37;;
9304;SDS011;4690;52.422;13.486;2023-05-16T04:22:04;15.27;;;13.77;;
9304;SDS011;4690;52.422;13.486;2023-05-16T04:24:31;16.37;;;14.77;;
9304;SDS011;4690;52.422;13.486;2023-05-16T04:26:57;17.97;;;16.20;;
9304;SDS011;4690;52.422;13.486;2023-05-16T04:29:23;16.53;;;14.80;;
9304;SDS011;4690;52.422;13.486;2023-05-16T04:31:49;15.90;;;14.43;;
9304;SDS011;4690;52.422;13.486;2023-05-16T04:34:15;16.40;;;14.80;;
9304;SDS011;4690;52.422;13.486;2023-05-16T04:36:42;15.87;;;14.47;;
9304;SDS011;4690;52.422;13.486;2023-05-16T04:39:07;16.77;;;14.83;;
9304;SDS011;4690;52.422;13.486;2023-05-16T04:41:33;15.70;;;14.10;;
9304;SDS011;4690;52.422;13.486;2023-05-16T04:44:00;18.27;;;15.17;;
9304;SDS011;4690;52.422;13.486;2023-05-16T04:46:30;21.00;;;15.93;;
9304;SDS011;4690;52.422;13.486;2023-05-16T04:48:56;20.00;;;15.90;;
9304;SDS011;4690;52.422;13.486;2023-05-16T04:51:22;15.13;;;13.47;;
9304;SDS011;4690;52.422;13.486;2023-05-16T04:53:47;19.07;;;15.53;;
9304;SDS011;4690;52.422;13.486;2023-05-16T04:56:13;18.13;;;15.90;;
9304;SDS011;4690;52.422;13.486;2023-05-16T04:58:39;16.63;;;15.03;;
9304;SDS011;4690;52.422;13.486;2023-05-16T05:01:05;16.37;;;14.77;;
9304;SDS011;4690;52.422;13.486;2023-05-16T05:03:30;16.87;;;15.13;;
9304;SDS011;4690;52.422;13.486;2023-05-16T05:05:56;16.93;;;14.57;;
9304;SDS011;4690;52.422;13.486;2023-05-16T05:08:22;17.10;;;15.40;;
9304;SDS011;4690;52.422;13.486;2023-05-16T05:10:48;16.30;;;14.70;;
9304;SDS011;4690;52.422;13.486;2023-05-16T05:13:13;16.33;;;14.63;;
9304;SDS011;4690;52.422;13.486;2023-05-16T05:15:39;15.93;;;14.43;;
9304;SDS011;4690;52.422;13.486;2023-05-16T05:18:05;15.97;;;14.07;;
9304;SDS011;4690;52.422;13.486;2023-05-16T05:20:31;16.57;;;14.97;;
9304;SDS011;4690;52.422;13.486;2023-05-16T05:22:56;18.73;;;15.47;;
9304;SDS011;4690;52.422;13.486;2023-05-16T05:25:22;20.53;;;15.30;;
9304;SDS011;4690;52.422;13.486;2023-05-16T05:27:48;18.10;;;15.17;;
9304;SDS011;4690;52.422;13.486;2023-05-16T05:30:13;14.80;;;13.40;;
9304;SDS011;4690;52.422;13.486;2023-05-16T05:32:40;20.90;;;16.43;;
9304;SDS011;4690;52.422;13.486;2023-05-16T05:35:06;16.83;;;15.13;;
9304;SDS011;4690;52.422;13.486;2023-05-16T05:37:32;17.50;;;15.60;;
9304;SDS011;4690;52.422;13.486;2023-05-16T05:39:58;16.93;;;15.33;;
9304;SDS011;4690;52.422;13.486;2023-05-16T05:42:23;17.37;;;15.00;;
9304;SDS011;4690;52.422;13.486;2023-05-16T05:44:49;16.97;;;15.20;;
9304;SDS011;4690;52.422;13.486;2023-05-16T05:47:15;16.70;;;15.10;;
9304;SDS011;4690;52.422;13.486;2023-05-16T05:49:41;15.57;;;13.97;;
9304;SDS011;4690;52.422;13.486;2023-05-16T05:52:07;16.17;;;14.57;;
9304;SDS011;4690;52.422;13.486;2023-05-16T05:54:33;17.17;;;15.43;;
9304;SDS011;4690;52.422;13.486;2023-05-16T05:56:59;17.23;;;15.43;;
9304;SDS011;4690;52.422;13.486;2023-05-16T05:59:25;15.73;;;14.03;;
9304;SDS011;4690;52.422;13.486;2023-05-16T06:01:51;17.33;;;15.53;;
9304;SDS011;4690;52.422;13.486;2023-05-16T06:04:17;19.13;;;14.63;;
9304;SDS011;4690;52.422;13.486;2023-05-16T06:06:44;15.97;;;14.30;;
9304;SDS011;4690;52.422;13.486;2023-05-16T06:09:10;16.57;;;13.80;;
9304;SDS011;4690;52.422;13.486;2023-05-16T06:11:38;14.27;;;12.77;;
9304;SDS011;4690;52.422;13.486;2023-05-16T06:14:03;14.90;;;13.27;;
9304;SDS011;4690;52.422;13.486;2023-05-16T06:16:29;15.47;;;13.03;;
9304;SDS011;4690;52.422;13.486;2023-05-16T06:18:55;14.03;;;11.50;;
9304;SDS011;4690;52.422;13.486;2023-05-16T06:21:21;13.13;;;11.77;;
9304;SDS011;4690;52.422;13.486;2023-05-16T06:23:47;13.80;;;12.17;;
9304;SDS011;4690;52.422;13.486;2023-05-16T06:26:13;14.23;;;12.20;;
9304;SDS011;4690;52.422;13.486;2023-05-16T06:28:38;14.63;;;12.57;;
9304;SDS011;4690;52.422;13.486;2023-05-16T06:31:04;15.17;;;12.03;;
9304;SDS011;4690;52.422;13.486;2023-05-16T06:33:30;14.63;;;12.63;;
9304;SDS011;4690;52.422;13.486;2023-05-16T06:35:56;14.20;;;12.30;;
9304;SDS011;4690;52.422;13.486;2023-05-16T06:38:21;12.53;;;11.37;;
9304;SDS011;4690;52.422;13.486;2023-05-16T06:40:47;14.27;;;12.33;;
9304;SDS011;4690;52.422;13.486;2023-05-16T06:43:13;13.60;;;12.20;;
9304;SDS011;4690;52.422;13.486;2023-05-16T06:45:39;12.57;;;11.37;;
9304;SDS011;4690;52.422;13.486;2023-05-16T06:48:05;13.00;;;10.73;;
9304;SDS011;4690;52.422;13.486;2023-05-16T06:50:32;13.27;;;11.27;;
9304;SDS011;4690;52.422;13.486;2023-05-16T06:52:59;13.23;;;10.43;;
9304;SDS011;4690;52.422;13.486;2023-05-16T06:55:25;13.13;;;11.53;;
9304;SDS011;4690;52.422;13.486;2023-05-16T06:57:51;12.90;;;11.30;;
9304;SDS011;4690;52.422;13.486;2023-05-16T07:00:17;12.13;;;10.73;;
9304;SDS011;4690;52.422;13.486;2023-05-16T07:02:43;13.57;;;10.93;;
9304;SDS011;4690;52.422;13.486;2023-05-16T07:05:09;11.37;;;10.27;;
9304;SDS011;4690;52.422;13.486;2023-05-16T07:07:35;11.27;;;9.97;;
9304;SDS011;4690;52.422;13.486;2023-05-16T07:10:01;12.17;;;9.70;;
9304;SDS011;4690;52.422;13.486;2023-05-16T07:12:27;12.07;;;9.77;;
9304;SDS011;4690;52.422;13.486;2023-05-16T07:14:53;9.30;;;8.50;;
9304;SDS011;4690;52.422;13.486;2023-05-16T07:17:19;13.87;;;9.57;;
9304;SDS011;4690;52.422;13.486;2023-05-16T07:19:45;9.27;;;8.40;;
9304;SDS011;4690;52.422;13.486;2023-05-16T07:22:10;8.77;;;8.07;;
9304;SDS011;4690;52.422;13.486;2023-05-16T07:24:36;8.73;;;7.83;;
9304;SDS011;4690;52.422;13.486;2023-05-16T07:27:02;8.33;;;7.50;;
9304;SDS011;4690;52.422;13.486;2023-05-16T07:29:28;9.47;;;8.30;;
9304;SDS011;4690;52.422;13.486;2023-05-16T07:31:54;8.27;;;7.40;;
9304;SDS011;4690;52.422;13.486;2023-05-16T07:34:20;12.63;;;7.33;;
9304;SDS011;4690;52.422;13.486;2023-05-16T07:36:46;8.27;;;6.53;;
9304;SDS011;4690;52.422;13.486;2023-05-16T07:39:12;9.00;;;7.27;;
9304;SDS011;4690;52.422;13.486;2023-05-16T07:41:38;9.47;;;7.20;;
9304;SDS011;4690;52.422;13.486;2023-05-16T07:44:04;9.43;;;7.20;;
9304;SDS011;4690;52.422;13.486;2023-05-16T07:46:30;8.07;;;7.27;;
9304;SDS011;4690;52.422;13.486;2023-05-16T07:48:56;7.90;;;6.47;;
9304;SDS011;4690;52.422;13.486;2023-05-16T07:51:22;11.07;;;6.80;;
9304;SDS011;4690;52.422;13.486;2023-05-16T07:53:47;7.43;;;6.53;;
9304;SDS011;4690;52.422;13.486;2023-05-16T07:56:13;7.60;;;6.47;;
9304;SDS011;4690;52.422;13.486;2023-05-16T07:58:39;5.63;;;5.13;;
9304;SDS011;4690;52.422;13.486;2023-05-16T08:01:05;8.00;;;5.80;;
9304;SDS011;4690;52.422;13.486;2023-05-16T08:03:31;7.90;;;6.17;;
9304;SDS011;4690;52.422;13.486;2023-05-16T08:05:57;9.07;;;5.77;;
9304;SDS011;4690;52.422;13.486;2023-05-16T08:08:23;6.37;;;5.73;;
9304;SDS011;4690;52.422;13.486;2023-05-16T08:10:49;5.97;;;5.37;;
9304;SDS011;4690;52.422;13.486;2023-05-16T08:13:15;7.77;;;5.10;;
9304;SDS011;4690;52.422;13.486;2023-05-16T08:15:40;7.63;;;5.00;;
9304;SDS011;4690;52.422;13.486;2023-05-16T08:18:11;6.97;;;5.00;;
9304;SDS011;4690;52.422;13.486;2023-05-16T08:20:39;6.90;;;5.10;;
9304;SDS011;4690;52.422;13.486;2023-05-16T08:23:05;5.37;;;4.53;;
9304;SDS011;4690;52.422;13.486;2023-05-16T08:25:32;7.93;;;5.13;;
9304;SDS011;4690;52.422;13.486;2023-05-16T08:27:59;5.90;;;5.00;;
9304;SDS011;4690;52.422;13.486;2023-05-16T08:30:28;4.97;;;4.33;;
9304;SDS011;4690;52.422;13.486;2023-05-16T08:32:54;6.57;;;4.53;;
9304;SDS011;4690;52.422;13.486;2023-05-16T08:35:20;5.33;;;4.83;;
9304;SDS011;4690;52.422;13.486;2023-05-16T08:37:45;4.63;;;4.13;;
9304;SDS011;4690;52.422;13.486;2023-05-16T08:40:11;6.10;;;4.60;;
9304;SDS011;4690;52.422;13.486;2023-05-16T08:42:38;6.97;;;4.30;;
9304;SDS011;4690;52.422;13.486;2023-05-16T08:45:05;5.83;;;4.40;;
9304;SDS011;4690;52.422;13.486;2023-05-16T08:47:32;5.13;;;4.47;;
9304;SDS011;4690;52.422;13.486;2023-05-16T08:50:01;4.90;;;4.50;;
9304;SDS011;4690;52.422;13.486;2023-05-16T08:52:29;4.93;;;3.90;;
9304;SDS011;4690;52.422;13.486;2023-05-16T08:55:00;4.83;;;4.30;;
9304;SDS011;4690;52.422;13.486;2023-05-16T08:57:34;5.77;;;4.70;;
9304;SDS011;4690;52.422;13.486;2023-05-16T09:00:01;5.13;;;4.63;;
9304;SDS011;4690;52.422;13.486;2023-05-16T09:02:31;4.13;;;3.70;;
9304;SDS011;4690;52.422;13.486;2023-05-16T09:04:57;5.97;;;4.30;;
9304;SDS011;4690;52.422;13.486;2023-05-16T09:07:24;5.93;;;4.43;;
9304;SDS011;4690;52.422;13.486;2023-05-16T09:09:50;5.03;;;3.80;;
9304;SDS011;4690;52.422;13.486;2023-05-16T09:12:15;5.70;;;4.10;;
9304;SDS011;4690;52.422;13.486;2023-05-16T09:14:41;6.27;;;4.47;;
9304;SDS011;4690;52.422;13.486;2023-05-16T09:17:08;4.17;;;3.43;;
9304;SDS011;4690;52.422;13.486;2023-05-16T09:19:38;5.00;;;4.07;;
9304;SDS011;4690;52.422;13.486;2023-05-16T09:22:08;6.37;;;3.70;;
9304;SDS011;4690;52.422;13.486;2023-05-16T09:24:39;7.87;;;3.57;;
9304;SDS011;4690;52.422;13.486;2023-05-16T09:27:14;5.50;;;3.30;;
9304;SDS011;4690;52.422;13.486;2023-05-16T09:29:43;6.23;;;3.50;;
9304;SDS011;4690;52.422;13.486;2023-05-16T09:32:15;7.10;;;3.60;;
9304;SDS011;4690;52.422;13.486;2023-05-16T09:34:45;5.23;;;3.10;;
9304;SDS011;4690;52.422;13.486;2023-05-16T09:37:13;5.87;;;3.37;;
9304;SDS011;4690;52.422;13.486;2023-05-16T09:39:46;5.97;;;3.23;;
9304;SDS011;4690;52.422;13.486;2023-05-16T09:42:15;4.43;;;3.30;;
9304;SDS011;4690;52.422;13.486;2023-05-16T09:44:45;5.83;;;2.93;;
9304;SDS011;4690;52.422;13.486;2023-05-16T09:47:16;4.57;;;2.90;;
9304;SDS011;4690;52.422;13.486;2023-05-16T09:49:43;6.37;;;3.47;;
9304;SDS011;4690;52.422;13.486;2023-05-16T09:52:10;3.53;;;2.90;;
9304;SDS011;4690;52.422;13.486;2023-05-16T09:54:38;3.57;;;3.00;;
9304;SDS011;4690;52.422;13.486;2023-05-16T09:57:04;8.83;;;3.33;;
9304;SDS011;4690;52.422;13.486;2023-05-16T09:59:39;6.23;;;3.23;;
9304;SDS011;4690;52.422;13.486;2023-05-16T10:02:06;5.67;;;3.17;;
9304;SDS011;4690;52.422;13.486;2023-05-16T10:04:33;5.47;;;2.90;;
9304;SDS011;4690;52.422;13.486;2023-05-16T10:07:02;5.53;;;2.57;;
9304;SDS011;4690;52.422;13.486;2023-05-16T10:09:31;4.20;;;2.67;;
9304;SDS011;4690;52.422;13.486;2023-05-16T10:11:59;5.87;;;2.70;;
9304;SDS011;4690;52.422;13.486;2023-05-16T10:14:28;5.53;;;3.00;;
9304;SDS011;4690;52.422;13.486;2023-05-16T10:16:58;5.90;;;2.90;;
9304;SDS011;4690;52.422;13.486;2023-05-16T10:19:25;5.23;;;2.63;;
9304;SDS011;4690;52.422;13.486;2023-05-16T10:21:55;4.60;;;2.70;;
9304;SDS011;4690;52.422;13.486;2023-05-16T10:24:30;6.57;;;3.03;;
9304;SDS011;4690;52.422;13.486;2023-05-16T10:27:31;5.77;;;2.80;;
9304;SDS011;4690;52.422;13.486;2023-05-16T10:29:57;7.30;;;2.90;;
9304;SDS011;4690;52.422;13.486;2023-05-16T10:32:24;8.97;;;3.40;;
9304;SDS011;4690;52.422;13.486;2023-05-16T10:34:51;4.77;;;3.07;;
9304;SDS011;4690;52.422;13.486;2023-05-16T10:37:19;6.67;;;3.53;;
9304;SDS011;4690;52.422;13.486;2023-05-16T10:39:47;6.83;;;3.23;;
9304;SDS011;4690;52.422;13.486;2023-05-16T10:42:13;5.53;;;3.23;;
9304;SDS011;4690;52.422;13.486;2023-05-16T10:44:42;6.40;;;3.17;;
9304;SDS011;4690;52.422;13.486;2023-05-16T10:47:08;5.17;;;3.37;;
9304;SDS011;4690;52.422;13.486;2023-05-16T10:49:33;7.13;;;3.40;;
9304;SDS011;4690;52.422;13.486;2023-05-16T10:52:06;6.40;;;3.17;;
9304;SDS011;4690;52.422;13.486;2023-05-16T10:54:41;5.70;;;2.60;;
9304;SDS011;4690;52.422;13.486;2023-05-16T10:57:22;7.60;;;3.30;;
9304;SDS011;4690;52.422;13.486;2023-05-16T10:59:48;7.13;;;3.00;;
9304;SDS011;4690;52.422;13.486;2023-05-16T11:04:48;6.03;;;3.23;;
9304;SDS011;4690;52.422;13.486;2023-05-16T11:07:18;8.23;;;3.40;;
9304;SDS011;4690;52.422;13.486;2023-05-16T11:10:02;9.73;;;3.33;;
9304;SDS011;4690;52.422;13.486;2023-05-16T11:12:43;7.37;;;3.47;;
9304;SDS011;4690;52.422;13.486;2023-05-16T11:15:31;6.77;;;3.17;;
9304;SDS011;4690;52.422;13.486;2023-05-16T11:18:14;6.40;;;3.13;;
9304;SDS011;4690;52.422;13.486;2023-05-16T11:20:41;6.60;;;3.87;;
9304;SDS011;4690;52.422;13.486;2023-05-16T11:23:23;10.10;;;3.70;;
9304;SDS011;4690;52.422;13.486;2023-05-16T11:25:52;13.67;;;4.07;;
9304;SDS011;4690;52.422;13.486;2023-05-16T11:28:19;8.73;;;3.43;;
9304;SDS011;4690;52.422;13.486;2023-05-16T11:30:47;15.70;;;3.30;;
9304;SDS011;4690;52.422;13.486;2023-05-16T11:33:20;8.63;;;3.03;;
9304;SDS011;4690;52.422;13.486;2023-05-16T11:38:33;10.17;;;3.77;;
9304;SDS011;4690;52.422;13.486;2023-05-16T11:41:06;8.17;;;3.27;;
9304;SDS011;4690;52.422;13.486;2023-05-16T11:43:37;9.47;;;3.30;;
9304;SDS011;4690;52.422;13.486;2023-05-16T11:46:15;10.97;;;3.60;;
9304;SDS011;4690;52.422;13.486;2023-05-16T11:48:41;8.87;;;2.87;;
9304;SDS011;4690;52.422;13.486;2023-05-16T11:51:10;8.47;;;3.10;;
9304;SDS011;4690;52.422;13.486;2023-05-16T11:53:36;7.63;;;2.87;;
9304;SDS011;4690;52.422;13.486;2023-05-16T11:56:02;8.63;;;2.93;;
9304;SDS011;4690;52.422;13.486;2023-05-16T11:58:32;11.27;;;3.00;;
9304;SDS011;4690;52.422;13.486;2023-05-16T12:00:58;7.00;;;2.87;;
9304;SDS011;4690;52.422;13.486;2023-05-16T12:03:23;7.53;;;2.93;;
9304;SDS011;4690;52.422;13.486;2023-05-16T12:05:50;9.43;;;3.27;;
9304;SDS011;4690;52.422;13.486;2023-05-16T12:08:21;11.73;;;3.30;;
9304;SDS011;4690;52.422;13.486;2023-05-16T12:10:49;7.70;;;2.90;;
9304;SDS011;4690;52.422;13.486;2023-05-16T12:13:17;6.20;;;2.90;;
9304;SDS011;4690;52.422;13.486;2023-05-16T12:15:48;7.33;;;2.70;;
9304;SDS011;4690;52.422;13.486;2023-05-16T12:18:16;11.37;;;3.20;;
9304;SDS011;4690;52.422;13.486;2023-05-16T12:20:43;11.80;;;3.67;;
9304;SDS011;4690;52.422;13.486;2023-05-16T12:23:12;7.40;;;2.80;;
9304;SDS011;4690;52.422;13.486;2023-05-16T12:25:39;6.03;;;2.50;;
9304;SDS011;4690;52.422;13.486;2023-05-16T12:28:11;4.23;;;2.50;;
9304;SDS011;4690;52.422;13.486;2023-05-16T12:30:39;8.90;;;2.87;;
9304;SDS011;4690;52.422;13.486;2023-05-16T12:33:08;6.50;;;2.60;;
9304;SDS011;4690;52.422;13.486;2023-05-16T12:35:38;6.18;;;2.75;;
9304;SDS011;4690;52.422;13.486;2023-05-16T12:38:07;7.53;;;2.65;;
9304;SDS011;4690;52.422;13.486;2023-05-16T12:40:39;8.98;;;2.80;;
9304;SDS011;4690;52.422;13.486;2023-05-16T12:43:13;11.05;;;2.83;;
9304;SDS011;4690;52.422;13.486;2023-05-16T12:45:50;5.05;;;2.45;;
9304;SDS011;4690;52.422;13.486;2023-05-16T12:48:18;7.05;;;2.40;;
9304;SDS011;4690;52.422;13.486;2023-05-16T12:50:44;6.07;;;2.72;;
9304;SDS011;4690;52.422;13.486;2023-05-16T12:53:11;6.22;;;2.85;;
9304;SDS011;4690;52.422;13.486;2023-05-16T12:55:40;9.73;;;3.03;;
9304;SDS011;4690;52.422;13.486;2023-05-16T12:58:08;7.60;;;2.67;;
9304;SDS011;4690;52.422;13.486;2023-05-16T13:00:35;5.28;;;2.50;;
9304;SDS011;4690;52.422;13.486;2023-05-16T13:03:02;7.75;;;2.42;;
9304;SDS011;4690;52.422;13.486;2023-05-16T13:05:30;8.25;;;2.72;;
9304;SDS011;4690;52.422;13.486;2023-05-16T13:07:55;7.57;;;2.60;;
9304;SDS011;4690;52.422;13.486;2023-05-16T13:10:21;7.35;;;2.95;;
9304;SDS011;4690;52.422;13.486;2023-05-16T13:12:47;11.68;;;2.65;;
9304;SDS011;4690;52.422;13.486;2023-05-16T13:15:13;6.60;;;2.95;;
9304;SDS011;4690;52.422;13.486;2023-05-16T13:17:39;9.20;;;3.08;;
9304;SDS011;4690;52.422;13.486;2023-05-16T13:20:11;12.10;;;3.03;;
9304;SDS011;4690;52.422;13.486;2023-05-16T13:22:39;6.70;;;2.70;;
9304;SDS011;4690;52.422;13.486;2023-05-16T13:25:06;8.02;;;2.83;;
9304;SDS011;4690;52.422;13.486;2023-05-16T13:27:32;5.90;;;2.42;;
9304;SDS011;4690;52.422;13.486;2023-05-16T13:29:58;6.10;;;2.50;;
9304;SDS011;4690;52.422;13.486;2023-05-16T13:32:24;7.57;;;2.58;;
9304;SDS011;4690;52.422;13.486;2023-05-16T13:34:50;6.63;;;2.70;;
9304;SDS011;4690;52.422;13.486;2023-05-16T13:37:17;7.68;;;2.53;;
9304;SDS011;4690;52.422;13.486;2023-05-16T13:39:43;10.18;;;2.97;;
9304;SDS011;4690;52.422;13.486;2023-05-16T13:42:09;6.05;;;2.50;;
9304;SDS011;4690;52.422;13.486;2023-05-16T13:44:35;7.78;;;2.90;;
9304;SDS011;4690;52.422;13.486;2023-05-16T13:47:01;11.95;;;3.13;;
9304;SDS011;4690;52.422;13.486;2023-05-16T13:49:27;6.10;;;2.50;;
9304;SDS011;4690;52.422;13.486;2023-05-16T13:51:53;8.82;;;3.10;;
9304;SDS011;4690;52.422;13.486;2023-05-16T13:54:19;7.40;;;2.58;;
9304;SDS011;4690;52.422;13.486;2023-05-16T13:56:46;7.25;;;2.70;;
9304;SDS011;4690;52.422;13.486;2023-05-16T13:59:13;13.00;;;2.90;;
9304;SDS011;4690;52.422;13.486;2023-05-16T14:01:39;9.13;;;2.63;;
9304;SDS011;4690;52.422;13.486;2023-05-16T14:04:05;7.20;;;2.83;;
9304;SDS011;4690;52.422;13.486;2023-05-16T14:06:31;7.18;;;2.60;;
9304;SDS011;4690;52.422;13.486;2023-05-16T14:08:57;7.25;;;2.40;;
9304;SDS011;4690;52.422;13.486;2023-05-16T14:11:23;10.45;;;2.92;;
9304;SDS011;4690;52.422;13.486;2023-05-16T14:13:51;5.53;;;2.33;;
9304;SDS011;4690;52.422;13.486;2023-05-16T14:16:18;5.13;;;2.55;;
9304;SDS011;4690;52.422;13.486;2023-05-16T14:18:44;8.48;;;3.00;;
9304;SDS011;4690;52.422;13.486;2023-05-16T14:21:10;10.93;;;2.63;;
9304;SDS011;4690;52.422;13.486;2023-05-16T14:23:36;6.10;;;2.55;;
9304;SDS011;4690;52.422;13.486;2023-05-16T14:26:02;7.68;;;2.35;;
9304;SDS011;4690;52.422;13.486;2023-05-16T14:28:28;6.55;;;2.60;;
9304;SDS011;4690;52.422;13.486;2023-05-16T14:30:56;7.13;;;2.38;;
9304;SDS011;4690;52.422;13.486;2023-05-16T14:33:23;10.73;;;2.72;;
9304;SDS011;4690;52.422;13.486;2023-05-16T14:35:49;6.40;;;2.30;;
9304;SDS011;4690;52.422;13.486;2023-05-16T14:38:16;7.15;;;2.38;;
9304;SDS011;4690;52.422;13.486;2023-05-16T14:40:42;7.10;;;2.53;;
9304;SDS011;4690;52.422;13.486;2023-05-16T14:43:08;6.63;;;2.30;;
9304;SDS011;4690;52.422;13.486;2023-05-16T14:45:34;6.55;;;2.50;;
9304;SDS011;4690;52.422;13.486;2023-05-16T14:48:01;4.65;;;2.15;;
9304;SDS011;4690;52.422;13.486;2023-05-16T14:50:27;9.13;;;2.28;;
9304;SDS011;4690;52.422;13.486;2023-05-16T14:52:53;6.18;;;2.40;;
9304;SDS011;4690;52.422;13.486;2023-05-16T14:55:19;6.90;;;2.30;;
9304;SDS011;4690;52.422;13.486;2023-05-16T14:57:45;5.82;;;2.25;;
9304;SDS011;4690;52.422;13.486;2023-05-16T15:00:13;5.60;;;2.10;;
9304;SDS011;4690;52.422;13.486;2023-05-16T15:02:41;7.00;;;2.50;;
9304;SDS011;4690;52.422;13.486;2023-05-16T15:05:08;5.60;;;2.20;;
9304;SDS011;4690;52.422;13.486;2023-05-16T15:07:34;5.82;;;2.22;;
9304;SDS011;4690;52.422;13.486;2023-05-16T15:10:00;6.28;;;2.40;;
9304;SDS011;4690;52.422;13.486;2023-05-16T15:12:26;10.05;;;3.10;;
9304;SDS011;4690;52.422;13.486;2023-05-16T15:14:52;7.00;;;2.45;;
9304;SDS011;4690;52.422;13.486;2023-05-16T15:17:17;7.80;;;2.92;;
9304;SDS011;4690;52.422;13.486;2023-05-16T15:19:43;4.35;;;2.20;;
9304;SDS011;4690;52.422;13.486;2023-05-16T15:22:09;6.25;;;2.20;;
9304;SDS011;4690;52.422;13.486;2023-05-16T15:24:35;4.97;;;1.80;;
9304;SDS011;4690;52.422;13.486;2023-05-16T15:27:01;6.28;;;1.92;;